Wetterdaten: Woche 22.02.10 - 28.02.10 (KW8)
Datum Zeit Temp. A. Feuchte A. Luftdruck Regen Wind Richtung Taupunkt Windchill Windben
22.02.2010 00:00 2,8 C 81 % 997,1 hPa 0,0 l/m 0,0 km/h O-SO -0,1 C 2,8 C 0,0 km/h
22.02.2010 01:00 2,8 C 81 % 996,6 hPa 0,0 l/m 0,0 km/h NO -0,1 C 2,8 C 0,0 km/h
22.02.2010 02:00 3,1 C 81 % 995,8 hPa 0,0 l/m 0,7 km/h N-NO 0,2 C 3,1 C 0,7 km/h
22.02.2010 03:00 2,9 C 82 % 995,9 hPa 0,0 l/m 4,0 km/h N-NO 0,1 C 2,9 C 4,0 km/h
22.02.2010 04:00 3,4 C 82 % 995,7 hPa 0,0 l/m 0,0 km/h NO 0,6 C 3,4 C 0,0 km/h
22.02.2010 05:00 3,5 C 83 % 995,4 hPa 0,0 l/m 0,0 km/h S-SW 0,9 C 3,5 C 0,0 km/h
22.02.2010 06:00 4,8 C 83 % 995,1 hPa 0,0 l/m 2,5 km/h SW 2,2 C 4,8 C 2,5 km/h
22.02.2010 07:00 7,4 C 76 % 995,1 hPa 0,0 l/m 13,0 km/h W-SW 3,5 C 3,0 C 13,0 km/h
22.02.2010 08:00 7,8 C 77 % 995,2 hPa 0,0 l/m 1,1 km/h W-SW 4,0 C 7,8 C 1,1 km/h
22.02.2010 09:00 8,3 C 76 % 995,3 hPa 0,0 l/m 3,2 km/h SW 4,3 C 8,3 C 3,2 km/h
22.02.2010 10:00 9,8 C 72 % 995,3 hPa 0,0 l/m 1,4 km/h SW 5,0 C 9,8 C 1,4 km/h
22.02.2010 11:00 10,1 C 73 % 994,9 hPa 0,0 l/m 5,4 km/h S-SO 5,5 C 10,1 C 5,4 km/h
22.02.2010 12:00 15,2 C 60 % 994,1 hPa 0,0 l/m 0,0 km/h N-NW 7,5 C 15,2 C 0,0 km/h
22.02.2010 13:00 16,4 C 54 % 993,2 hPa 0,0 l/m 1,1 km/h SW 7,1 C 16,4 C 1,1 km/h
22.02.2010 14:00 16,3 C 54 % 992,7 hPa 0,0 l/m 13,7 km/h S 7,0 C 13,2 C 13,7 km/h
22.02.2010 15:00 14,1 C 56 % 992,2 hPa 0,0 l/m 12,2 km/h S-SW 5,5 C 11,2 C 12,2 km/h
22.02.2010 16:00 13,2 C 58 % 991,9 hPa 0,0 l/m 14,4 km/h SO 5,1 C 9,2 C 14,4 km/h
22.02.2010 17:00 11,8 C 62 % 991,4 hPa 0,0 l/m 4,0 km/h S-SO 4,8 C 11,8 C 4,0 km/h
22.02.2010 18:00 9,9 C 65 % 991,6 hPa 0,0 l/m 7,6 km/h NO 3,6 C 9,0 C 7,6 km/h
22.02.2010 19:00 8,1 C 69 % 992,2 hPa 0,0 l/m 0,0 km/h O-NO 2,8 C 8,1 C 0,0 km/h
22.02.2010 20:00 6,7 C 76 % 992,2 hPa 0,0 l/m 0,0 km/h NO 2,8 C 6,7 C 0,0 km/h
22.02.2010 21:00 4,9 C 80 % 992,9 hPa 0,0 l/m 0,0 km/h NO 1,7 C 4,9 C 0,0 km/h
22.02.2010 22:00 4,2 C 84 % 993,2 hPa 0,0 l/m 1,1 km/h SO 1,7 C 4,2 C 1,1 km/h
22.02.2010 23:00 5,3 C 82 % 993,3 hPa 0,0 l/m 0,0 km/h NO 2,5 C 5,3 C 0,0 km/h
23.02.2010 00:00 5,6 C 82 % 993,4 hPa 0,0 l/m 2,9 km/h NO 2,8 C 5,6 C 2,9 km/h
23.02.2010 01:00 9,3 C 73 % 993,7 hPa 0,0 l/m 12,2 km/h S 4,7 C 5,6 C 12,2 km/h
23.02.2010 02:00 9,6 C 75 % 993,7 hPa 0,0 l/m 14,8 km/h W-SW 5,4 C 4,7 C 14,8 km/h
23.02.2010 03:00 8,6 C 78 % 993,5 hPa 0,0 l/m 2,2 km/h S-SW 5,0 C 8,6 C 2,2 km/h
23.02.2010 04:00 9,4 C 75 % 993,3 hPa 0,0 l/m 13,0 km/h S-SW 5,2 C 5,3 C 13,0 km/h
23.02.2010 05:00 9,8 C 74 % 993,7 hPa 0,0 l/m 12,2 km/h SW 5,4 C 6,2 C 12,2 km/h
23.02.2010 06:00 9,4 C 75 % 993,6 hPa 0,0 l/m 13,3 km/h W-SW 5,2 C 5,2 C 13,3 km/h
23.02.2010 07:00 10,0 C 74 % 994,1 hPa 0,0 l/m 15,5 km/h SW 5,6 C 4,9 C 15,5 km/h
23.02.2010 08:00 9,5 C 77 % 994,9 hPa 0,0 l/m 11,2 km/h S 5,7 C 6,4 C 11,2 km/h
23.02.2010 09:00 9,5 C 77 % 995,0 hPa 0,0 l/m 8,6 km/h SW 5,7 C 7,9 C 8,6 km/h
23.02.2010 10:00 9,9 C 73 % 995,5 hPa 0,0 l/m 19,1 km/h SW 5,3 C 3,5 C 19,1 km/h
23.02.2010 11:00 10,3 C 75 % 995,8 hPa 0,0 l/m 18,0 km/h SW 6,1 C 4,3 C 18,0 km/h
23.02.2010 12:00 10,8 C 74 % 995,8 hPa 0,0 l/m 22,0 km/h SW 6,4 C 3,7 C 22,0 km/h
23.02.2010 13:00 11,1 C 74 % 995,9 hPa 0,0 l/m 14,4 km/h SW 6,6 C 6,7 C 14,4 km/h
23.02.2010 14:00 11,5 C 76 % 995,8 hPa 0,0 l/m 13,3 km/h SW 7,4 C 7,7 C 13,3 km/h
23.02.2010 15:00 11,6 C 74 % 995,9 hPa 0,0 l/m 16,6 km/h SW 7,1 C 6,5 C 16,6 km/h
23.02.2010 16:00 12,8 C 75 % 996,2 hPa 0,0 l/m 4,3 km/h W-SW 8,5 C 12,8 C 4,3 km/h
23.02.2010 17:00 9,6 C 80 % 996,8 hPa 0,0 l/m 14,8 km/h S-SW 6,3 C 4,7 C 14,8 km/h
23.02.2010 18:00 9,6 C 79 % 997,6 hPa 0,0 l/m 7,6 km/h SO 6,1 C 8,7 C 7,6 km/h
23.02.2010 19:00 9,3 C 80 % 998,0 hPa 0,0 l/m 0,0 km/h S-SO 6,0 C 9,3 C 0,0 km/h
23.02.2010 20:00 9,3 C 78 % 998,1 hPa 0,0 l/m 0,0 km/h SW 5,7 C 9,3 C 0,0 km/h
23.02.2010 21:00 10,2 C 73 % 998,4 hPa 0,0 l/m 4,3 km/h N 5,6 C 10,2 C 4,3 km/h
23.02.2010 22:00 8,9 C 76 % 998,8 hPa 0,0 l/m 0,0 km/h SW 4,9 C 8,9 C 0,0 km/h
23.02.2010 23:00 7,9 C 82 % 999,4 hPa 0,0 l/m 15,8 km/h W-SW 5,0 C 2,2 C 15,8 km/h
24.02.2010 00:00 8,5 C 80 % 999,7 hPa 0,0 l/m 19,4 km/h W-SW 5,3 C 1,6 C 19,4 km/h
24.02.2010 01:00 8,1 C 80 % 999,8 hPa 0,0 l/m 0,0 km/h S 4,9 C 8,1 C 0,0 km/h
24.02.2010 02:00 8,3 C 80 % 999,9 hPa 0,0 l/m 0,4 km/h S-SW 5,1 C 8,3 C 0,4 km/h
24.02.2010 03:00 7,8 C 81 % 999,8 hPa 0,0 l/m 0,0 km/h NO 4,7 C 7,8 C 0,0 km/h
24.02.2010 04:00 7,5 C 83 % 999,8 hPa 0,0 l/m 0,0 km/h SO 4,8 C 7,5 C 0,0 km/h
24.02.2010 05:00 6,8 C 87 % 999,8 hPa 0,0 l/m 0,0 km/h SO 4,8 C 6,8 C 0,0 km/h
24.02.2010 06:00 6,4 C 89 % 999,6 hPa 0,0 l/m 0,0 km/h O-SO 4,7 C 6,4 C 0,0 km/h
24.02.2010 07:00 6,3 C 91 % 999,8 hPa 0,0 l/m 0,0 km/h SO 4,9 C 6,3 C 0,0 km/h
24.02.2010 08:00 7,3 C 90 % 1000,5 hPa 0,0 l/m 0,0 km/h O-SO 5,8 C 7,3 C 0,0 km/h
24.02.2010 09:00 8,5 C 87 % 1000,7 hPa 0,4 l/m 0,0 km/h O-NO 6,5 C 8,5 C 0,0 km/h
24.02.2010 10:00 8,7 C 86 % 1001,0 hPa 0,0 l/m 0,0 km/h N-NO 6,5 C 8,7 C 0,0 km/h
24.02.2010 11:00 10,2 C 87 % 1001,3 hPa 0,0 l/m 0,0 km/h S-SO 8,1 C 10,2 C 0,0 km/h
24.02.2010 12:00 11,9 C 76 % 1000,8 hPa 0,0 l/m 0,0 km/h S-SW 7,8 C 11,9 C 0,0 km/h
24.02.2010 13:00 13,8 C 68 % 1000,6 hPa 0,0 l/m 13,3 km/h S-SW 8,0 C 10,4 C 13,3 km/h
24.02.2010 14:00 13,8 C 65 % 1000,5 hPa 0,0 l/m 11,9 km/h SW 7,3 C 10,9 C 11,9 km/h
24.02.2010 15:00 16,3 C 58 % 1000,1 hPa 0,0 l/m 13,3 km/h W-SW 8,0 C 13,3 C 13,3 km/h
24.02.2010 16:00 12,2 C 68 % 1000,0 hPa 0,0 l/m 2,9 km/h S-SW 6,5 C 12,2 C 2,9 km/h
24.02.2010 17:00 11,1 C 69 % 1000,6 hPa 0,0 l/m 5,4 km/h S-SW 5,6 C 11,1 C 5,4 km/h
24.02.2010 18:00 9,9 C 78 % 1001,8 hPa 0,0 l/m 9,7 km/h S 6,2 C 7,7 C 9,7 km/h
24.02.2010 19:00 8,3 C 83 % 1002,6 hPa 0,0 l/m 17,6 km/h W-SW 5,6 C 2,0 C 17,6 km/h
24.02.2010 20:00 8,3 C 79 % 1003,2 hPa 0,0 l/m 10,8 km/h W-SW 4,9 C 5,2 C 10,8 km/h
24.02.2010 21:00 8,5 C 74 % 1003,5 hPa 0,0 l/m 20,2 km/h W-SW 4,1 C 1,3 C 20,2 km/h
24.02.2010 22:00 8,1 C 74 % 1003,0 hPa 0,0 l/m 0,0 km/h SW 3,8 C 8,1 C 0,0 km/h
24.02.2010 23:00 8,8 C 70 % 1002,9 hPa 0,0 l/m 5,0 km/h SW 3,6 C 8,8 C 5,0 km/h
25.02.2010 00:00 8,9 C 68 % 1002,7 hPa 0,0 l/m 13,3 km/h S-SW 3,3 C 4,6 C 13,3 km/h
25.02.2010 01:00 8,9 C 65 % 1002,1 hPa 0,0 l/m 14,4 km/h S-SW 2,7 C 4,1 C 14,4 km/h
25.02.2010 02:00 9,5 C 61 % 1002,2 hPa 0,0 l/m 13,7 km/h S-SW 2,4 C 5,1 C 13,7 km/h
25.02.2010 03:00 9,4 C 60 % 1001,5 hPa 0,0 l/m 10,4 km/h W 2,0 C 6,7 C 10,4 km/h
25.02.2010 04:00 9,6 C 59 % 1001,0 hPa 0,0 l/m 0,0 km/h SO 2,0 C 9,6 C 0,0 km/h
25.02.2010 05:00 7,7 C 67 % 1001,2 hPa 0,0 l/m 1,4 km/h SW 2,0 C 7,7 C 1,4 km/h
25.02.2010 06:00 9,5 C 59 % 1001,6 hPa 0,0 l/m 12,2 km/h W-SW 1,9 C 5,8 C 12,2 km/h
25.02.2010 07:00 8,5 C 64 % 1002,0 hPa 0,0 l/m 19,4 km/h S 2,1 C 1,6 C 19,4 km/h
25.02.2010 08:00 9,8 C 63 % 1001,6 hPa 0,0 l/m 6,1 km/h W-SW 3,1 C 9,8 C 6,1 km/h
25.02.2010 09:00 13,9 C 57 % 1000,6 hPa 0,0 l/m 0,4 km/h W 5,5 C 13,9 C 0,4 km/h
25.02.2010 10:00 12,5 C 55 % 1000,3 hPa 0,0 l/m 0,0 km/h W-NW 3,7 C 12,5 C 0,0 km/h
25.02.2010 11:00 13,7 C 53 % 999,8 hPa 0,0 l/m 0,0 km/h N 4,3 C 13,7 C 0,0 km/h
25.02.2010 12:00 15,3 C 49 % 999,2 hPa 0,0 l/m 0,0 km/h W-SW 4,7 C 15,3 C 0,0 km/h
25.02.2010 13:00 15,2 C 52 % 998,0 hPa 0,0 l/m 1,8 km/h W 5,4 C 15,2 C 1,8 km/h
25.02.2010 14:00 13,9 C 55 % 996,9 hPa 0,0 l/m 2,9 km/h W 5,0 C 13,9 C 2,9 km/h
25.02.2010 15:00 12,8 C 58 % 996,1 hPa 0,0 l/m 0,0 km/h S 4,7 C 12,8 C 0,0 km/h
25.02.2010 16:00 10,7 C 75 % 996,6 hPa 0,0 l/m 13,3 km/h S-SO 6,5 C 6,7 C 13,3 km/h
25.02.2010 17:00 9,3 C 82 % 996,2 hPa 0,4 l/m 12,6 km/h S 6,4 C 5,4 C 12,6 km/h
25.02.2010 18:00 9,4 C 83 % 996,1 hPa 0,4 l/m 12,6 km/h S-SO 6,7 C 5,5 C 12,6 km/h
25.02.2010 19:00 8,9 C 84 % 995,5 hPa 0,0 l/m 11,2 km/h S-SO 6,3 C 5,7 C 11,2 km/h
25.02.2010 20:00 9,6 C 81 % 994,9 hPa 0,0 l/m 12,2 km/h S 6,5 C 6,0 C 12,2 km/h
25.02.2010 21:00 9,5 C 85 % 995,3 hPa 0,0 l/m 10,8 km/h S-SO 7,1 C 6,6 C 10,8 km/h
25.02.2010 22:00 9,8 C 82 % 994,5 hPa 0,4 l/m 19,8 km/h S-SW 6,9 C 3,1 C 19,8 km/h
25.02.2010 23:00 9,6 C 82 % 994,0 hPa 0,4 l/m 14,4 km/h SO 6,7 C 4,9 C 14,4 km/h
26.02.2010 00:00 8,9 C 87 % 993,6 hPa 0,4 l/m 13,0 km/h SO 6,9 C 4,7 C 13,0 km/h
26.02.2010 01:00 8,2 C 89 % 993,0 hPa 0,4 l/m 0,0 km/h SW 6,5 C 8,2 C 0,0 km/h
26.02.2010 02:00 9,1 C 87 % 992,5 hPa 0,4 l/m 13,3 km/h SW 7,1 C 4,8 C 13,3 km/h
26.02.2010 03:00 9,2 C 80 % 993,6 hPa 0,0 l/m 15,8 km/h S-SW 5,9 C 3,8 C 15,8 km/h
26.02.2010 04:00 8,9 C 79 % 993,8 hPa 0,0 l/m 14,0 km/h S-SW 5,5 C 4,3 C 14,0 km/h
26.02.2010 05:00 8,9 C 74 % 993,5 hPa 0,0 l/m 10,8 km/h W-SW 4,5 C 5,9 C 10,8 km/h
26.02.2010 06:00 9,9 C 68 % 993,2 hPa 0,0 l/m 15,8 km/h SW 4,3 C 4,7 C 15,8 km/h
26.02.2010 07:00 10,1 C 65 % 993,8 hPa 0,0 l/m 16,2 km/h S-SW 3,8 C 4,8 C 16,2 km/h
26.02.2010 08:00 9,5 C 69 % 994,7 hPa 0,0 l/m 26,6 km/h S-SW 4,1 C 0,7 C 26,6 km/h
26.02.2010 09:00 9,5 C 70 % 994,4 hPa 0,0 l/m 19,4 km/h SW 4,3 C 2,8 C 19,4 km/h
26.02.2010 10:00 12,2 C 59 % 994,1 hPa 0,0 l/m 35,6 km/h SW 4,4 C 2,8 C 35,6 km/h
26.02.2010 11:00 11,3 C 59 % 995,3 hPa 0,0 l/m 23,8 km/h W 3,6 C 3,9 C 23,8 km/h
26.02.2010 12:00 8,8 C 65 % 997,0 hPa 0,0 l/m 27,4 km/h W 2,6 C -0,4 C 27,4 km/h
26.02.2010 13:00 7,1 C 70 % 998,8 hPa 0,0 l/m 32,4 km/h W-SW 2,0 C -4,0 C 32,4 km/h
26.02.2010 14:00 6,2 C 74 % 1000,7 hPa 0,0 l/m 19,8 km/h W-SW 1,9 C -1,5 C 19,8 km/h
26.02.2010 15:00 6,4 C 73 % 1001,4 hPa 0,0 l/m 12,6 km/h NW 1,9 C 2,0 C 12,6 km/h
26.02.2010 16:00 5,9 C 76 % 1001,8 hPa 0,0 l/m 2,2 km/h W 2,0 C 5,9 C 2,2 km/h
26.02.2010 17:00 6,3 C 73 % 1002,7 hPa 0,0 l/m 11,5 km/h W 1,8 C 2,6 C 11,5 km/h
26.02.2010 18:00 5,5 C 78 % 1003,7 hPa 0,0 l/m 14,8 km/h W 2,0 C -0,2 C 14,8 km/h
26.02.2010 19:00 4,4 C 77 % 1005,0 hPa 0,0 l/m 0,0 km/h S-SO 0,7 C 4,4 C 0,0 km/h
26.02.2010 20:00 2,1 C 83 % 1005,8 hPa 0,0 l/m 0,0 km/h NO -0,5 C 2,1 C 0,0 km/h
26.02.2010 21:00 2,9 C 82 % 1006,5 hPa 0,0 l/m 1,8 km/h W-NW 0,1 C 2,9 C 1,8 km/h
26.02.2010 22:00 3,3 C 81 % 1007,1 hPa 0,0 l/m 5,8 km/h NO 0,4 C 3,3 C 5,8 km/h
26.02.2010 23:00 1,8 C 81 % 1007,5 hPa 0,0 l/m 3,2 km/h SO -1,1 C 1,8 C 3,2 km/h
27.02.2010 00:00 3,6 C 76 % 1007,9 hPa 0,0 l/m 0,0 km/h SO -0,2 C 3,6 C 0,0 km/h
27.02.2010 01:00 4,8 C 70 % 1008,1 hPa 0,0 l/m 9,4 km/h S-SW -0,2 C 2,3 C 9,4 km/h
27.02.2010 02:00 4,9 C 72 % 1008,4 hPa 0,0 l/m 12,2 km/h W-SW 0,3 C 0,5 C 12,2 km/h
27.02.2010 03:00 5,6 C 73 % 1008,1 hPa 0,0 l/m 13,3 km/h SW 1,2 C 0,7 C 13,3 km/h
27.02.2010 04:00 5,9 C 73 % 1008,4 hPa 0,0 l/m 10,4 km/h SW 1,4 C 2,8 C 10,4 km/h
27.02.2010 05:00 5,5 C 75 % 1008,3 hPa 0,0 l/m 14,8 km/h SW 1,4 C -0,2 C 14,8 km/h
27.02.2010 06:00 4,9 C 77 % 1008,2 hPa 0,0 l/m 8,3 km/h O-SO 1,2 C 3,3 C 8,3 km/h
27.02.2010 07:00 3,3 C 80 % 1008,0 hPa 0,0 l/m 1,1 km/h NO 0,2 C 3,3 C 1,1 km/h
27.02.2010 08:00 5,4 C 79 % 1007,6 hPa 0,0 l/m 0,0 km/h W-SW 2,1 C 5,4 C 0,0 km/h
27.02.2010 09:00 11,1 C 58 % 1007,0 hPa 0,0 l/m 7,2 km/h SW 3,2 C 10,5 C 7,2 km/h
27.02.2010 10:00 13,4 C 46 % 1006,6 hPa 0,0 l/m 10,4 km/h SW 2,0 C 11,2 C 10,4 km/h
27.02.2010 11:00 14,5 C 40 % 1005,7 hPa 0,0 l/m 8,3 km/h W 1,1 C 13,4 C 8,3 km/h
27.02.2010 12:00 15,4 C 37 % 1004,4 hPa 0,0 l/m 1,1 km/h N 0,8 C 15,4 C 1,1 km/h
27.02.2010 13:00 16,4 C 35 % 1002,8 hPa 0,0 l/m 1,1 km/h W-SW 0,9 C 16,4 C 1,1 km/h
27.02.2010 14:00 17,9 C 33 % 1001,7 hPa 0,0 l/m 6,1 km/h N-NW 1,4 C 17,9 C 6,1 km/h
27.02.2010 15:00 14,6 C 36 % 1000,0 hPa 0,0 l/m 0,0 km/h S-SO -0,3 C 14,6 C 0,0 km/h
27.02.2010 16:00 12,3 C 45 % 999,1 hPa 0,0 l/m 11,2 km/h S 0,7 C 9,5 C 11,2 km/h
27.02.2010 17:00 10,6 C 44 % 999,1 hPa 0,0 l/m 1,8 km/h SO -1,1 C 10,6 C 1,8 km/h
27.02.2010 18:00 9,2 C 45 % 998,7 hPa 0,0 l/m 0,0 km/h NO -2,1 C 9,2 C 0,0 km/h
27.02.2010 19:00 8,1 C 51 % 997,3 hPa 0,0 l/m 0,0 km/h SO -1,4 C 8,1 C 0,0 km/h
27.02.2010 20:00 8,6 C 46 % 995,9 hPa 0,0 l/m 0,0 km/h S-SO -2,4 C 8,6 C 0,0 km/h
27.02.2010 21:00 9,5 C 50 % 995,0 hPa 0,0 l/m 13,3 km/h S -0,4 C 5,3 C 13,3 km/h
27.02.2010 22:00 8,9 C 65 % 993,7 hPa 0,0 l/m 15,5 km/h S 2,7 C 3,6 C 15,5 km/h
27.02.2010 23:00 8,4 C 69 % 992,2 hPa 0,0 l/m 0,0 km/h NW 3,0 C 8,4 C 0,0 km/h
28.02.2010 00:00 7,1 C 79 % 991,4 hPa 0,0 l/m 1,8 km/h S-SW 3,7 C 7,1 C 1,8 km/h
28.02.2010 01:00 5,8 C 85 % 990,6 hPa 0,4 l/m 0,0 km/h N 3,5 C 5,8 C 0,0 km/h
28.02.2010 02:00 5,5 C 87 % 988,8 hPa 0,0 l/m 0,0 km/h N 3,5 C 5,5 C 0,0 km/h
28.02.2010 03:00 5,6 C 89 % 988,7 hPa 0,0 l/m 0,0 km/h S-SO 3,9 C 5,6 C 0,0 km/h
28.02.2010 04:00 5,3 C 90 % 988,5 hPa 0,0 l/m 0,0 km/h SO 3,8 C 5,3 C 0,0 km/h
28.02.2010 05:00 5,2 C 91 % 987,4 hPa 0,0 l/m 1,4 km/h O-NO 3,9 C 5,2 C 1,4 km/h
28.02.2010 06:00 6,1 C 89 % 987,8 hPa 0,0 l/m 0,0 km/h NO 4,4 C 6,1 C 0,0 km/h
28.02.2010 07:00 6,7 C 91 % 988,7 hPa 0,0 l/m 1,4 km/h W 5,3 C 6,7 C 1,4 km/h
28.02.2010 08:00 9,9 C 85 % 988,7 hPa 0,0 l/m 0,0 km/h W-SW 7,5 C 9,9 C 0,0 km/h
28.02.2010 09:00 14,5 C 65 % 989,2 hPa 0,0 l/m 20,5 km/h W 8,0 C 9,0 C 20,5 km/h
28.02.2010 10:00 15,3 C 52 % 990,7 hPa 0,0 l/m 20,9 km/h W-SW 5,5 C 9,9 C 20,9 km/h
28.02.2010 11:00 15,5 C 50 % 992,1 hPa 0,4 l/m 16,2 km/h W-SW 5,1 C 11,4 C 16,2 km/h
28.02.2010 12:00 14,5 C 46 % 993,7 hPa 0,0 l/m 32,0 km/h W 3,0 C 6,7 C 32,0 km/h
28.02.2010 13:00 13,4 C 50 % 995,2 hPa 0,0 l/m 16,2 km/h W 3,2 C 8,8 C 16,2 km/h
28.02.2010 14:00 13,9 C 49 % 995,7 hPa 0,0 l/m 20,5 km/h W 3,4 C 8,2 C 20,5 km/h
28.02.2010 15:00 15,6 C 42 % 997,1 hPa 0,0 l/m 21,6 km/h W-SW 2,7 C 10,1 C 21,6 km/h
28.02.2010 16:00 14,7 C 42 % 997,9 hPa 0,0 l/m 16,9 km/h W 1,9 C 10,2 C 16,9 km/h
28.02.2010 17:00 11,6 C 49 % 998,5 hPa 0,0 l/m 11,9 km/h W-SW 1,3 C 8,4 C 11,9 km/h
28.02.2010 18:00 10,6 C 53 % 999,6 hPa 0,0 l/m 28,8 km/h W-SW 1,4 C 1,8 C 28,8 km/h
28.02.2010 19:00 9,8 C 57 % 1000,9 hPa 0,0 l/m 18,0 km/h W-SW 1,7 C 3,7 C 18,0 km/h
28.02.2010 20:00 8,6 C 61 % 1001,8 hPa 0,0 l/m 20,5 km/h W 1,5 C 1,3 C 20,5 km/h
28.02.2010 21:00 8,6 C 63 % 1003,0 hPa 0,0 l/m 10,8 km/h SW 2,0 C 5,6 C 10,8 km/h
28.02.2010 22:00 7,6 C 70 % 1003,8 hPa 0,0 l/m 13,7 km/h W-NW 2,5 C 2,9 C 13,7 km/h
28.02.2010 23:00 6,9 C 71 % 1005,1 hPa 0,0 l/m 1,8 km/h W-NW 2,0 C 6,9 C 1,8 km/h
Min-Datum _ 26.02.10 27.02.10 28.02.10 - 22.02.10 - 27.02.10 26.02.10 22.02.10
_ Min-Zeit 23:53 14:53 05:53 - 00:53 - 20:53 13:53 00:53
Minimum _ 1,8 C 33 % 987,4 hPa - 0,0 km/h - -2,4 C -4,0 C 0,0 km/h
Max-Datum _ 27.02.10 24.02.10 27.02.10 24.02.10 26.02.10 - 23.02.10 27.02.10 26.02.10
_ Max-Zeit 14:53 07:53 02:53 09:53 10:53 - 16:53 14:53 10:53
Maximum _ 17,9 C 91 % 1008,4 hPa 0,4 l/m 35,6 km/h
SW
- 8,5 C 17,9 C 35,6 km/h
SW
Durchschnitt _ 9,2 C 70 % 997,9 hPa #3,6 l/m 8,5 km/h SW 3,8 C 6,8 C 8,5 km/h